African Highway — 3EOD8 — position and weather

sailwx.info

Track history (hours):
 
Tides and Currents Weather Stations Pressure Air Temp Water Temp Dewpoint Dewpoint Depression Visibility Wind Speed Wind Dir Waves Ship Positions

African Highway

Last reported at 2015-Jul-03 10:34 UTC. Time now 2015-Jul-03 10:42 UTC.
Position N 53°36' E 006°36'.

Length 154.5 m; beam 27.6 m.

Type: Cargo ship. MMSI: 353633000.

Date/timePositionNaut miles runAvg speedWind from/ knotsBaromVisibWave heightAir tempDewpointWater temp
2015-Jul-03 10:34N 53°36' E 006°36'1413.8
2015-Jul-03 09:34N 53°27' E 006°54'10 9.9
2015-Jul-03 08:33N 53°20' E 007°05'3 2.9
2015-Jul-03 07:26N 53°20' E 007°10'0 0.0
2015-Jul-03 06:29N 53°20' E 007°10'0 0.0
2015-Jul-03 05:29N 53°20' E 007°10'0 0.0
2015-Jul-03 04:32N 53°20' E 007°10'0 0.0
2015-Jul-03 03:32N 53°20' E 007°10'0 0.0
2015-Jul-03 02:29N 53°20' E 007°10'0 0.0
2015-Jul-03 01:32N 53°20' E 007°10'0 0.0
2015-Jul-03 00:32N 53°20' E 007°10'0 0.0
2015-Jul-02 23:26N 53°20' E 007°10'0 0.0
2015-Jul-02 22:26N 53°20' E 007°10'0 0.0
2015-Jul-02 21:29N 53°20' E 007°10'0 0.0
2015-Jul-02 20:32N 53°20' E 007°10'0 0.0
2015-Jul-02 19:32N 53°20' E 007°10'0 0.0
2015-Jul-02 18:32N 53°20' E 007°10'0 0.0
2015-Jul-02 17:32N 53°20' E 007°10'0 0.0
2015-Jul-02 16:32N 53°20' E 007°10'0 0.0
2015-Jul-02 15:32N 53°20' E 007°10'0 0.0
2015-Jul-02 14:29N 53°20' E 007°10'0 0.0
2015-Jul-02 13:32N 53°20' E 007°10'0 0.0
2015-Jul-02 12:32N 53°20' E 007°10'0 0.0
2015-Jul-02 11:32N 53°20' E 007°10'1 1.2
2015-Jul-02 10:33N 53°20' E 007°08'8 8.3
2015-Jul-02 09:33N 53°24' E 006°57'1615.8
2015-Jul-02 08:33N 53°35' E 006°37'1514.9
2015-Jul-02 07:33N 53°38' E 006°12'1010.5
2015-Jul-02 06:34N 53°42' E 005°56'1313.2
2015-Jul-02 05:34N 53°50' E 005°38'1514.9
2015-Jul-02 04:33N 53°55' E 005°14'1615.7
2015-Jul-02 03:33N 53°60' E 004°49'1615.7
2015-Jul-02 02:33N 53°59' E 004°22'1615.6
2015-Jul-02 01:33N 53°56' E 003°56'1615.4
2015-Jul-02 00:32N 53°54' E 003°29'4615.0
2015-Jul-01 21:28N 53°51' E 002°12'1415.9
2015-Jul-01 20:33N 53°48' E 001°48'1616.1
2015-Jul-01 19:34N 53°43' E 001°22'1716.5
2015-Jul-01 18:33N 53°37' E 000°56'1616.0
2015-Jul-01 17:34N 53°32' E 000°30'1212.3
2015-Jul-01 16:33N 53°33' E 000°09'8 8.2
2015-Jul-01 15:33N 53°35' W 000°04'0 0.1
2015-Jul-01 14:33N 53°35' W 000°04'0 0.0
2015-Jul-01 13:33N 53°35' W 000°04'0 0.0
2015-Jul-01 12:33N 53°35' W 000°04'0 0.0
2015-Jul-01 11:33N 53°35' W 000°04'0 0.0
2015-Jul-01 10:33N 53°35' W 000°04'0 0.0
2015-Jul-01 09:33N 53°35' W 000°04'0 0.0
2015-Jul-01 08:33N 53°35' W 000°04'0 0.0
2015-Jul-01 07:33N 53°35' W 000°04'0 0.0
2015-Jul-01 06:33N 53°35' W 000°04'0 0.0
2015-Jul-01 05:33N 53°35' W 000°04'0 0.0
2015-Jul-01 04:33N 53°35' W 000°04'0 0.0
2015-Jul-01 03:33N 53°35' W 000°04'0 0.0
2015-Jul-01 02:33N 53°35' W 000°04'0 0.0
2015-Jul-01 01:33N 53°35' W 000°04'0 0.0
2015-Jul-01 00:33N 53°35' W 000°04'0 0.0
2015-Jun-30 23:31N 53°35' W 000°04'0 0.0
2015-Jun-30 22:31N 53°35' W 000°04'0 0.0
2015-Jun-30 21:31N 53°35' W 000°04'0 0.0
2015-Jun-30 20:31N 53°35' W 000°04'0 0.0
2015-Jun-30 19:31N 53°35' W 000°04'0 0.0
2015-Jun-30 18:31N 53°35' W 000°04'0 0.0
2015-Jun-30 17:31N 53°35' W 000°04'0 0.0
2015-Jun-30 16:31N 53°35' W 000°04'3 3.1
2015-Jun-30 15:33N 53°35' E 000°01'10 9.9
2015-Jun-30 14:33N 53°33' E 000°17'7 6.8
2015-Jun-30 13:33N 53°33' E 000°29'4 4.3
2015-Jun-30 12:32N 53°33' E 000°36'6 5.7
2015-Jun-30 11:33N 53°32' E 000°45'1313.4
2015-Jun-30 10:34N 53°38' E 001°05'1515.3
2015-Jun-30 09:33N 53°45' E 001°29'1515.3
2015-Jun-30 08:33N 53°49' E 001°53'1815.2
2015-Jun-30 07:23N 53°52' E 002°23'7514.8
2015-Jun-30 02:20N 54°03' E 004°29'1215.6
2015-Jun-30 01:33N 54°04' E 004°49'1211.8
2015-Jun-30 00:33N 54°02' E 005°09'1615.9
2015-Jun-29 23:34N 53°57' E 005°35'1616.0
2015-Jun-29 22:33N 53°52' E 006°01'1413.5
2015-Jun-29 21:33N 53°41' E 006°14'1212.3
2015-Jun-29 20:33N 53°37' E 006°33'1414.6
2015-Jun-29 19:34N 53°28' E 006°52'1111.1
2015-Jun-29 18:33N 53°20' E 007°05'4 3.8
2015-Jun-29 17:33N 53°20' E 007°11'0 0.4
2015-Jun-29 16:32N 53°21' E 007°12'0 0.0
2015-Jun-29 15:32N 53°21' E 007°12'0 0.0
2015-Jun-29 14:32N 53°21' E 007°12'0 0.0
2015-Jun-29 13:32N 53°21' E 007°12'0 0.0
2015-Jun-29 12:26N 53°21' E 007°12'0 0.0
2015-Jun-29 11:32N 53°21' E 007°12'0 0.0
2015-Jun-29 10:26N 53°21' E 007°12'0 0.0
2015-Jun-29 09:32N 53°21' E 007°12'0 0.0
2015-Jun-29 08:32N 53°21' E 007°12'0 0.1
2015-Jun-29 07:33N 53°21' E 007°12'2 1.9
2015-Jun-29 06:33N 53°20' E 007°09'1110.5
2015-Jun-29 05:33N 53°26' E 006°55'1616.4
2015-Jun-29 04:34N 53°37' E 006°33'1111.3
2015-Jun-29 03:33N 53°39' E 006°14'9 9.0
2015-Jun-29 02:33N 53°39' E 005°59'1616.2
2015-Jun-29 01:33N 53°35' E 005°33'1616.2
2015-Jun-29 00:33N 53°30' E 005°07'1615.6
2015-Jun-28 23:33N 53°23' E 004°44'1616.3
2015-Jun-28 22:33N 53°09' E 004°31'1616.1
2015-Jun-28 21:33N 52°54' E 004°19'1616.0
2015-Jun-28 20:33N 52°42' E 004°02'1616.2
2015-Jun-28 19:33N 52°31' E 003°43'1615.9
2015-Jun-28 18:33N 52°20' E 003°24'1615.7
2015-Jun-28 17:32N 52°08' E 003°06'2015.7
2015-Jun-28 16:17N 51°56' E 002°41'1416.2
2015-Jun-28 15:25N 51°50' E 002°20'1517.0
2015-Jun-28 14:33N 51°41' E 002°01'1717.4
2015-Jun-28 13:34N 51°31' E 001°38'1414.0
2015-Jun-28 12:33N 51°29' E 001°16'1615.6
2015-Jun-28 11:33N 51°28' E 000°51'5 4.4
2015-Jun-28 10:30N 51°26' E 000°44'0 0.0
2015-Jun-28 09:33N 51°26' E 000°44'0 0.0
2015-Jun-28 08:30N 51°26' E 000°44'0 0.0
2015-Jun-28 07:33N 51°26' E 000°44'0 0.0
2015-Jun-28 06:33N 51°26' E 000°44'0 0.0
2015-Jun-28 05:33N 51°26' E 000°44'0 0.0
2015-Jun-28 04:30N 51°26' E 000°44'0 0.0
2015-Jun-28 03:33N 51°26' E 000°44'0 0.0
2015-Jun-28 02:33N 51°26' E 000°44'0 0.0
2015-Jun-28 01:33N 51°26' E 000°44'0 0.0
2015-Jun-28 00:33N 51°26' E 000°44'0 0.0
2015-Jun-27 23:33N 51°26' E 000°44'0 0.0
2015-Jun-27 22:33N 51°26' E 000°44'2 2.0
2015-Jun-27 21:33N 51°28' E 000°47'1110.9
2015-Jun-27 20:32N 51°30' E 001°04'1515.2
2015-Jun-27 19:33N 51°28' E 001°28'1010.3
2015-Jun-27 18:33N 51°32' E 001°43'1615.7
2015-Jun-27 17:34N 51°42' E 002°03'1616.3
2015-Jun-27 16:34N 51°52' E 002°24'1615.8
2015-Jun-27 15:31N 52°01' E 002°45'1515.5
2015-Jun-27 14:33N 52°13' E 003°01'1715.0
2015-Jun-27 13:25N 52°27' E 003°16'1314.6
2015-Jun-27 12:30N 52°38' E 003°29'1314.2
2015-Jun-27 11:33N 52°49' E 003°43'1414.1
2015-Jun-27 10:33N 52°59' E 003°59'1514.8
2015-Jun-27 09:33N 53°08' E 004°18'1615.3
2015-Jun-27 08:32N 53°22' E 004°31'1514.9
2015-Jun-27 07:34N 53°32' E 004°49'1515.5
2015-Jun-27 06:34N 53°37' E 005°13'1515.0
2015-Jun-27 05:34N 53°42' E 005°37'1414.4
2015-Jun-27 04:34N 53°45' E 006°00'1212.1
2015-Jun-27 03:33N 53°40' E 006°19'1111.3
2015-Jun-27 02:34N 53°36' E 006°36'1312.8
2015-Jun-27 01:34N 53°27' E 006°53'1010.3
2015-Jun-27 00:33N 53°19' E 007°04'5 4.5
2015-Jun-26 23:34N 53°20' E 007°11'0 0.5
2015-Jun-26 22:31N 53°21' E 007°12'0 0.0
2015-Jun-26 21:28N 53°21' E 007°12'0 0.0
2015-Jun-26 20:31N 53°21' E 007°12'0 0.0
2015-Jun-26 19:31N 53°21' E 007°12'0 0.0
2015-Jun-26 18:31N 53°21' E 007°12'0 0.0
2015-Jun-26 17:28N 53°21' E 007°12'0 0.0
2015-Jun-26 16:25N 53°21' E 007°12'0 0.0
2015-Jun-26 15:31N 53°21' E 007°12'0 0.0
2015-Jun-26 14:31N 53°21' E 007°12'0 0.0
2015-Jun-26 13:31N 53°21' E 007°12'0 0.0
2015-Jun-26 12:31N 53°21' E 007°12'0 0.0
2015-Jun-26 11:31N 53°21' E 007°12'0 0.0
2015-Jun-26 10:31N 53°21' E 007°12'0 0.0
2015-Jun-26 09:28N 53°21' E 007°12'0 0.0
2015-Jun-26 08:31N 53°21' E 007°12'0 0.5
2015-Jun-26 07:33N 53°20' E 007°11'0 0.3
2015-Jun-26 06:33N 53°20' E 007°11'0 0.0
2015-Jun-26 05:33N 53°20' E 007°11'0 0.0
2015-Jun-26 04:33N 53°20' E 007°11'0 0.0
2015-Jun-26 03:33N 53°20' E 007°11'0 0.0
2015-Jun-26 02:33N 53°20' E 007°11'0 0.0
2015-Jun-26 01:33N 53°20' E 007°11'0 0.0
2015-Jun-26 00:33N 53°20' E 007°11'0 0.0
2015-Jun-25 23:30N 53°20' E 007°11'0 0.0
2015-Jun-25 22:33N 53°20' E 007°11'0 0.0
2015-Jun-25 21:33N 53°20' E 007°11'0 0.0
2015-Jun-25 20:33N 53°20' E 007°11'0 0.0
2015-Jun-25 19:33N 53°20' E 007°11'0 0.0
2015-Jun-25 18:33N 53°20' E 007°11'0 0.1
2015-Jun-25 17:34N 53°20' E 007°11'7 6.8
2015-Jun-25 16:34N 53°20' E 006°60'1414.4
2015-Jun-25 15:33N 53°32' E 006°44'1615.6
2015-Jun-25 14:33N 53°38' E 006°20'1313.5
2015-Jun-25 13:33N 53°37' E 005°57'1313.2
2015-Jun-25 12:34N 53°47' E 005°43'1515.3
2015-Jun-25 11:33N 53°54' E 005°19'1616.0
2015-Jun-25 10:33N 53°59' E 004°54'1715.3
2015-Jun-25 09:29N 53°59' E 004°25'13814.9
2015-Jun-25 00:14N 53°33' E 000°37'1115.4
2015-Jun-24 23:33N 53°32' E 000°19'1010.3
2015-Jun-24 22:33N 53°35' E 000°02'4 3.7
2015-Jun-24 21:34N 53°35' W 000°04'0 0.0
2015-Jun-24 20:33N 53°35' W 000°04'0 0.0
2015-Jun-24 19:30N 53°35' W 000°04'0 0.0
2015-Jun-24 18:28N 53°35' W 000°04'0 0.0
2015-Jun-24 17:34N 53°35' W 000°04'0 0.0
2015-Jun-24 16:30N 53°35' W 000°04'0 0.0
2015-Jun-24 15:33N 53°35' W 000°04'0 0.0
2015-Jun-24 14:34N 53°35' W 000°04'0 0.0
2015-Jun-24 13:33N 53°35' W 000°04'0 0.0
2015-Jun-24 12:33N 53°35' W 000°04'0 0.0
2015-Jun-24 11:33N 53°35' W 000°04'0 0.0
2015-Jun-24 10:33N 53°35' W 000°04'3 2.8
2015-Jun-24 09:33N 53°35' E 000°01'1010.3
2015-Jun-24 08:33N 53°33' E 000°18'1111.2
2015-Jun-24 07:33N 53°33' E 000°37'6 5.8
2015-Jun-24 06:33N 53°31' E 000°46'2 2.4
2015-Jun-24 05:32N 53°33' E 000°48'2014.9
2015-Jun-24 04:13N 53°42' E 001°18'12215.4
2015-Jun-23 20:14N 54°04' E 004°42'1115.3
2015-Jun-23 19:32N 54°06' E 004°60'511.3
2015-Jun-23 19:06N 54°04' E 005°07'  
Track history (hours):
 
Tides and Currents Weather Stations Pressure Air Temp Water Temp Dewpoint Dewpoint Depression Visibility Wind Speed Wind Dir Waves Ship Positions

African Highway

Last reported at 2015-Jul-03 10:34 UTC. Time now 2015-Jul-03 10:42 UTC.
Position N 53°36' E 006°36'.

Length 154.5 m; beam 27.6 m.

Type: Cargo ship. MMSI: 353633000.

Date/timePositionNaut miles runAvg speedWind from/ knotsBaromVisibWave heightAir tempDewpointWater temp
2015-Jul-03 10:34N 53°36' E 006°36'1413.8
2015-Jul-03 09:34N 53°27' E 006°54'10 9.9
2015-Jul-03 08:33N 53°20' E 007°05'3 2.9
2015-Jul-03 07:26N 53°20' E 007°10'0 0.0
2015-Jul-03 06:29N 53°20' E 007°10'0 0.0
2015-Jul-03 05:29N 53°20' E 007°10'0 0.0
2015-Jul-03 04:32N 53°20' E 007°10'0 0.0
2015-Jul-03 03:32N 53°20' E 007°10'0 0.0
2015-Jul-03 02:29N 53°20' E 007°10'0 0.0
2015-Jul-03 01:32N 53°20' E 007°10'0 0.0
2015-Jul-03 00:32N 53°20' E 007°10'0 0.0
2015-Jul-02 23:26N 53°20' E 007°10'0 0.0
2015-Jul-02 22:26N 53°20' E 007°10'0 0.0
2015-Jul-02 21:29N 53°20' E 007°10'0 0.0
2015-Jul-02 20:32N 53°20' E 007°10'0 0.0
2015-Jul-02 19:32N 53°20' E 007°10'0 0.0
2015-Jul-02 18:32N 53°20' E 007°10'0 0.0
2015-Jul-02 17:32N 53°20' E 007°10'0 0.0
2015-Jul-02 16:32N 53°20' E 007°10'0 0.0
2015-Jul-02 15:32N 53°20' E 007°10'0 0.0
2015-Jul-02 14:29N 53°20' E 007°10'0 0.0
2015-Jul-02 13:32N 53°20' E 007°10'0 0.0
2015-Jul-02 12:32N 53°20' E 007°10'0 0.0
2015-Jul-02 11:32N 53°20' E 007°10'1 1.2
2015-Jul-02 10:33N 53°20' E 007°08'8 8.3
2015-Jul-02 09:33N 53°24' E 006°57'1615.8
2015-Jul-02 08:33N 53°35' E 006°37'1514.9
2015-Jul-02 07:33N 53°38' E 006°12'1010.5
2015-Jul-02 06:34N 53°42' E 005°56'1313.2
2015-Jul-02 05:34N 53°50' E 005°38'1514.9
2015-Jul-02 04:33N 53°55' E 005°14'1615.7
2015-Jul-02 03:33N 53°60' E 004°49'1615.7
2015-Jul-02 02:33N 53°59' E 004°22'1615.6
2015-Jul-02 01:33N 53°56' E 003°56'1615.4
2015-Jul-02 00:32N 53°54' E 003°29'4615.0
2015-Jul-01 21:28N 53°51' E 002°12'1415.9
2015-Jul-01 20:33N 53°48' E 001°48'1616.1
2015-Jul-01 19:34N 53°43' E 001°22'1716.5
2015-Jul-01 18:33N 53°37' E 000°56'1616.0
2015-Jul-01 17:34N 53°32' E 000°30'1212.3
2015-Jul-01 16:33N 53°33' E 000°09'8 8.2
2015-Jul-01 15:33N 53°35' W 000°04'0 0.1
2015-Jul-01 14:33N 53°35' W 000°04'0 0.0
2015-Jul-01 13:33N 53°35' W 000°04'0 0.0
2015-Jul-01 12:33N 53°35' W 000°04'0 0.0
2015-Jul-01 11:33N 53°35' W 000°04'0 0.0
2015-Jul-01 10:33N 53°35' W 000°04'0 0.0
2015-Jul-01 09:33N 53°35' W 000°04'0 0.0
2015-Jul-01 08:33N 53°35' W 000°04'0 0.0
2015-Jul-01 07:33N 53°35' W 000°04'0 0.0
2015-Jul-01 06:33N 53°35' W 000°04'0 0.0
2015-Jul-01 05:33N 53°35' W 000°04'0 0.0
2015-Jul-01 04:33N 53°35' W 000°04'0 0.0
2015-Jul-01 03:33N 53°35' W 000°04'0 0.0
2015-Jul-01 02:33N 53°35' W 000°04'0 0.0
2015-Jul-01 01:33N 53°35' W 000°04'0 0.0
2015-Jul-01 00:33N 53°35' W 000°04'0 0.0
2015-Jun-30 23:31N 53°35' W 000°04'0 0.0
2015-Jun-30 22:31N 53°35' W 000°04'0 0.0
2015-Jun-30 21:31N 53°35' W 000°04'0 0.0
2015-Jun-30 20:31N 53°35' W 000°04'0 0.0
2015-Jun-30 19:31N 53°35' W 000°04'0 0.0
2015-Jun-30 18:31N 53°35' W 000°04'0 0.0
2015-Jun-30 17:31N 53°35' W 000°04'0 0.0
2015-Jun-30 16:31N 53°35' W 000°04'3 3.1
2015-Jun-30 15:33N 53°35' E 000°01'10 9.9
2015-Jun-30 14:33N 53°33' E 000°17'7 6.8
2015-Jun-30 13:33N 53°33' E 000°29'4 4.3
2015-Jun-30 12:32N 53°33' E 000°36'6 5.7
2015-Jun-30 11:33N 53°32' E 000°45'1313.4
2015-Jun-30 10:34N 53°38' E 001°05'1515.3
2015-Jun-30 09:33N 53°45' E 001°29'1515.3
2015-Jun-30 08:33N 53°49' E 001°53'1815.2
2015-Jun-30 07:23N 53°52' E 002°23'7514.8
2015-Jun-30 02:20N 54°03' E 004°29'1215.6
2015-Jun-30 01:33N 54°04' E 004°49'1211.8
2015-Jun-30 00:33N 54°02' E 005°09'1615.9
2015-Jun-29 23:34N 53°57' E 005°35'1616.0
2015-Jun-29 22:33N 53°52' E 006°01'1413.5
2015-Jun-29 21:33N 53°41' E 006°14'1212.3
2015-Jun-29 20:33N 53°37' E 006°33'1414.6
2015-Jun-29 19:34N 53°28' E 006°52'1111.1
2015-Jun-29 18:33N 53°20' E 007°05'4 3.8
2015-Jun-29 17:33N 53°20' E 007°11'0 0.4
2015-Jun-29 16:32N 53°21' E 007°12'0 0.0
2015-Jun-29 15:32N 53°21' E 007°12'0 0.0
2015-Jun-29 14:32N 53°21' E 007°12'0 0.0
2015-Jun-29 13:32N 53°21' E 007°12'0 0.0
2015-Jun-29 12:26N 53°21' E 007°12'0 0.0
2015-Jun-29 11:32N 53°21' E 007°12'0 0.0
2015-Jun-29 10:26N 53°21' E 007°12'0 0.0
2015-Jun-29 09:32N 53°21' E 007°12'0 0.0
2015-Jun-29 08:32N 53°21' E 007°12'0 0.1
2015-Jun-29 07:33N 53°21' E 007°12'2 1.9
2015-Jun-29 06:33N 53°20' E 007°09'1110.5
2015-Jun-29 05:33N 53°26' E 006°55'1616.4
2015-Jun-29 04:34N 53°37' E 006°33'1111.3
2015-Jun-29 03:33N 53°39' E 006°14'9 9.0
2015-Jun-29 02:33N 53°39' E 005°59'1616.2
2015-Jun-29 01:33N 53°35' E 005°33'1616.2
2015-Jun-29 00:33N 53°30' E 005°07'1615.6
2015-Jun-28 23:33N 53°23' E 004°44'1616.3
2015-Jun-28 22:33N 53°09' E 004°31'1616.1
2015-Jun-28 21:33N 52°54' E 004°19'1616.0
2015-Jun-28 20:33N 52°42' E 004°02'1616.2
2015-Jun-28 19:33N 52°31' E 003°43'1615.9
2015-Jun-28 18:33N 52°20' E 003°24'1615.7
2015-Jun-28 17:32N 52°08' E 003°06'2015.7
2015-Jun-28 16:17N 51°56' E 002°41'1416.2
2015-Jun-28 15:25N 51°50' E 002°20'1517.0
2015-Jun-28 14:33N 51°41' E 002°01'1717.4
2015-Jun-28 13:34N 51°31' E 001°38'1414.0
2015-Jun-28 12:33N 51°29' E 001°16'1615.6
2015-Jun-28 11:33N 51°28' E 000°51'5 4.4
2015-Jun-28 10:30N 51°26' E 000°44'0 0.0
2015-Jun-28 09:33N 51°26' E 000°44'0 0.0
2015-Jun-28 08:30N 51°26' E 000°44'0 0.0
2015-Jun-28 07:33N 51°26' E 000°44'0 0.0
2015-Jun-28 06:33N 51°26' E 000°44'0 0.0
2015-Jun-28 05:33N 51°26' E 000°44'0 0.0
2015-Jun-28 04:30N 51°26' E 000°44'0 0.0
2015-Jun-28 03:33N 51°26' E 000°44'0 0.0
2015-Jun-28 02:33N 51°26' E 000°44'0 0.0
2015-Jun-28 01:33N 51°26' E 000°44'0 0.0
2015-Jun-28 00:33N 51°26' E 000°44'0 0.0
2015-Jun-27 23:33N 51°26' E 000°44'0 0.0
2015-Jun-27 22:33N 51°26' E 000°44'2 2.0
2015-Jun-27 21:33N 51°28' E 000°47'1110.9
2015-Jun-27 20:32N 51°30' E 001°04'1515.2
2015-Jun-27 19:33N 51°28' E 001°28'1010.3
2015-Jun-27 18:33N 51°32' E 001°43'1615.7
2015-Jun-27 17:34N 51°42' E 002°03'1616.3
2015-Jun-27 16:34N 51°52' E 002°24'1615.8
2015-Jun-27 15:31N 52°01' E 002°45'1515.5
2015-Jun-27 14:33N 52°13' E 003°01'1715.0
2015-Jun-27 13:25N 52°27' E 003°16'1314.6
2015-Jun-27 12:30N 52°38' E 003°29'1314.2
2015-Jun-27 11:33N 52°49' E 003°43'1414.1
2015-Jun-27 10:33N 52°59' E 003°59'1514.8
2015-Jun-27 09:33N 53°08' E 004°18'1615.3
2015-Jun-27 08:32N 53°22' E 004°31'1514.9
2015-Jun-27 07:34N 53°32' E 004°49'1515.5
2015-Jun-27 06:34N 53°37' E 005°13'1515.0
2015-Jun-27 05:34N 53°42' E 005°37'1414.4
2015-Jun-27 04:34N 53°45' E 006°00'1212.1
2015-Jun-27 03:33N 53°40' E 006°19'1111.3
2015-Jun-27 02:34N 53°36' E 006°36'1312.8
2015-Jun-27 01:34N 53°27' E 006°53'1010.3
2015-Jun-27 00:33N 53°19' E 007°04'5 4.5
2015-Jun-26 23:34N 53°20' E 007°11'0 0.5
2015-Jun-26 22:31N 53°21' E 007°12'0 0.0
2015-Jun-26 21:28N 53°21' E 007°12'0 0.0
2015-Jun-26 20:31N 53°21' E 007°12'0 0.0
2015-Jun-26 19:31N 53°21' E 007°12'0 0.0
2015-Jun-26 18:31N 53°21' E 007°12'0 0.0
2015-Jun-26 17:28N 53°21' E 007°12'0 0.0
2015-Jun-26 16:25N 53°21' E 007°12'0 0.0
2015-Jun-26 15:31N 53°21' E 007°12'0 0.0
2015-Jun-26 14:31N 53°21' E 007°12'0 0.0
2015-Jun-26 13:31N 53°21' E 007°12'0 0.0
2015-Jun-26 12:31N 53°21' E 007°12'0 0.0
2015-Jun-26 11:31N 53°21' E 007°12'0 0.0
2015-Jun-26 10:31N 53°21' E 007°12'0 0.0
2015-Jun-26 09:28N 53°21' E 007°12'0 0.0
2015-Jun-26 08:31N 53°21' E 007°12'0 0.5
2015-Jun-26 07:33N 53°20' E 007°11'0 0.3
2015-Jun-26 06:33N 53°20' E 007°11'0 0.0
2015-Jun-26 05:33N 53°20' E 007°11'0 0.0
2015-Jun-26 04:33N 53°20' E 007°11'0 0.0
2015-Jun-26 03:33N 53°20' E 007°11'0 0.0
2015-Jun-26 02:33N 53°20' E 007°11'0 0.0
2015-Jun-26 01:33N 53°20' E 007°11'0 0.0
2015-Jun-26 00:33N 53°20' E 007°11'0 0.0
2015-Jun-25 23:30N 53°20' E 007°11'0 0.0
2015-Jun-25 22:33N 53°20' E 007°11'0 0.0
2015-Jun-25 21:33N 53°20' E 007°11'0 0.0
2015-Jun-25 20:33N 53°20' E 007°11'0 0.0
2015-Jun-25 19:33N 53°20' E 007°11'0 0.0
2015-Jun-25 18:33N 53°20' E 007°11'0 0.1
2015-Jun-25 17:34N 53°20' E 007°11'7 6.8
2015-Jun-25 16:34N 53°20' E 006°60'1414.4
2015-Jun-25 15:33N 53°32' E 006°44'1615.6
2015-Jun-25 14:33N 53°38' E 006°20'1313.5
2015-Jun-25 13:33N 53°37' E 005°57'1313.2
2015-Jun-25 12:34N 53°47' E 005°43'1515.3
2015-Jun-25 11:33N 53°54' E 005°19'1616.0
2015-Jun-25 10:33N 53°59' E 004°54'1715.3
2015-Jun-25 09:29N 53°59' E 004°25'13814.9
2015-Jun-25 00:14N 53°33' E 000°37'1115.4
2015-Jun-24 23:33N 53°32' E 000°19'1010.3
2015-Jun-24 22:33N 53°35' E 000°02'4 3.7
2015-Jun-24 21:34N 53°35' W 000°04'0 0.0
2015-Jun-24 20:33N 53°35' W 000°04'0 0.0
2015-Jun-24 19:30N 53°35' W 000°04'0 0.0
2015-Jun-24 18:28N 53°35' W 000°04'0 0.0
2015-Jun-24 17:34N 53°35' W 000°04'0 0.0
2015-Jun-24 16:30N 53°35' W 000°04'0 0.0
2015-Jun-24 15:33N 53°35' W 000°04'0 0.0
2015-Jun-24 14:34N 53°35' W 000°04'0 0.0
2015-Jun-24 13:33N 53°35' W 000°04'0 0.0
2015-Jun-24 12:33N 53°35' W 000°04'0 0.0
2015-Jun-24 11:33N 53°35' W 000°04'0 0.0
2015-Jun-24 10:33N 53°35' W 000°04'3 2.8
2015-Jun-24 09:33N 53°35' E 000°01'1010.3
2015-Jun-24 08:33N 53°33' E 000°18'1111.2
2015-Jun-24 07:33N 53°33' E 000°37'6 5.8
2015-Jun-24 06:33N 53°31' E 000°46'2 2.4
2015-Jun-24 05:32N 53°33' E 000°48'2014.9
2015-Jun-24 04:13N 53°42' E 001°18'12215.4
2015-Jun-23 20:14N 54°04' E 004°42'1115.3
2015-Jun-23 19:32N 54°06' E 004°60'511.3
2015-Jun-23 19:06N 54°04' E 005°07'  

Dump ship's entire track history